Time;durP1;ratioP1;P1;durP2;ratioP2;P2;SDS_P1;SDS_P2;PMS_P1;PMS_P2;Temp;Humidity;BMP_temperature;BMP_pressure;BME280_temperature;BME280_humidity;BME280_pressure;Samples;Min_cycle;Max_cycle;Signal;HPM_P1;HPM_P2
2021/12/12 00:02:10;;;;;;;19.98;7.20;;;;;;;-9.91;76.40;100964.47;4863191;29;20052;-66
2021/12/12 00:04:38;;;;;;;9.55;5.57;;;;;;;-9.76;76.31;100974.41;4862503;29;20134;-65
2021/12/12 00:07:07;;;;;;;9.65;3.42;;;;;;;-9.69;76.07;100966.88;4846391;29;20048;-65
2021/12/12 00:09:40;;;;;;;25.17;8.00;;;;;;;-9.63;76.31;100982.59;4846516;29;20060;-64
2021/12/12 00:12:10;;;;;;;21.48;7.82;;;;;;;-9.49;75.62;100975.25;4830600;29;20040;-65
2021/12/12 00:14:36;;;;;;;14.02;4.97;;;;;;;-9.56;76.01;100975.88;4830037;29;20492;-65
2021/12/12 00:17:02;;;;;;;22.92;10.05;;;;;;;-9.78;75.33;100976.94;4830529;29;20044;-65
2021/12/12 00:19:28;;;;;;;8.75;3.55;;;;;;;-9.81;76.03;100975.94;4849407;29;20063;-64
2021/12/12 00:21:57;;;;;;;21.13;6.28;;;;;;;-9.75;75.60;100982.19;4850429;29;20044;-64
2021/12/12 00:24:23;;;;;;;18.98;7.70;;;;;;;-9.77;75.59;100988.13;4866325;29;20044;-64
2021/12/12 00:26:50;;;;;;;12.32;5.45;;;;;;;-9.81;76.12;100986.28;4863339;29;20171;-64
2021/12/12 00:29:17;;;;;;;13.35;5.53;;;;;;;-9.82;76.10;100982.84;4848697;29;20056;-65
2021/12/12 00:31:43;;;;;;;11.65;5.93;;;;;;;-9.74;76.07;100988.25;4846583;29;20044;-67
2021/12/12 00:34:08;;;;;;;16.42;5.78;;;;;;;-9.74;75.96;100996.84;4846834;29;20083;-67
2021/12/12 00:36:34;;;;;;;14.02;6.78;;;;;;;-9.80;76.26;101001.81;4863123;29;20045;-66
2021/12/12 00:39:07;;;;;;;11.73;5.93;;;;;;;-9.79;75.83;101000.97;4846014;29;20076;-66
2021/12/12 00:42:09;;;;;;;18.48;8.07;;;;;;;-9.77;76.64;101008.78;4862969;29;20072;-66
2021/12/12 00:44:38;;;;;;;17.60;7.03;;;;;;;-9.68;76.11;101001.31;4844188;29;20060;-66
2021/12/12 00:47:06;;;;;;;17.17;6.25;;;;;;;-9.77;75.39;100990.72;4845946;29;20045;-68
2021/12/12 00:49:35;;;;;;;18.52;8.48;;;;;;;-9.76;75.43;100993.34;4851593;29;20082;-69
2021/12/12 00:52:00;;;;;;;5.90;4.32;;;;;;;-9.78;76.23;100991.53;4863167;29;20130;-69
2021/12/12 00:54:30;;;;;;;21.55;10.20;;;;;;;-9.87;75.61;100999.88;4863255;29;20129;-69
2021/12/12 00:56:55;;;;;;;13.75;6.70;;;;;;;-9.78;76.14;101002.72;4863682;29;20369;-69
2021/12/12 00:59:20;;;;;;;13.63;7.93;;;;;;;-9.78;76.15;101004.44;4863360;29;20468;-67
2021/12/12 01:01:48;;;;;;;26.80;11.30;;;;;;;-9.93;76.17;101000.53;4846393;29;20048;-68
2021/12/12 01:04:18;;;;;;;20.35;8.95;;;;;;;-9.92;76.43;101007.44;4863232;29;20049;-66
2021/12/12 01:06:45;;;;;;;22.13;10.25;;;;;;;-9.95;76.39;101003.91;4845676;29;20075;-66
2021/12/12 01:09:14;;;;;;;12.35;5.57;;;;;;;-9.96;76.86;101005.63;4845166;29;20055;-67
2021/12/12 01:11:45;;;;;;;22.90;9.32;;;;;;;-9.78;76.43;101001.84;4844995;29;20051;-66
2021/12/12 01:14:15;;;;;;;18.05;6.20;;;;;;;-9.87;76.68;101007.59;4868146;29;20045;-65
2021/12/12 01:16:47;;;;;;;31.52;10.65;;;;;;;-9.81;75.66;100991.44;4863352;29;20535;-65
2021/12/12 01:19:17;;;;;;;11.82;6.82;;;;;;;-9.75;76.13;101007.13;4861687;29;20135;-64
2021/12/12 01:21:47;;;;;;;15.15;9.15;;;;;;;-9.74;76.29;100998.56;4845353;29;20055;-62
2021/12/12 01:24:19;;;;;;;14.73;8.90;;;;;;;-9.84;76.10;101004.25;4861543;29;20057;-62
2021/12/12 01:26:46;;;;;;;26.08;9.63;;;;;;;-10.05;76.27;101004.44;4862054;29;20127;-71
2021/12/12 01:29:11;;;;;;;22.48;8.45;;;;;;;-10.08;76.65;100997.47;4862300;29;20049;-68
2021/12/12 01:31:46;;;;;;;20.27;8.75;;;;;;;-10.06;76.34;100994.94;4845031;29;20063;-67
2021/12/12 01:34:12;;;;;;;26.75;10.45;;;;;;;-10.07;76.99;100993.19;4873823;29;20055;-69
2021/12/12 01:36:51;;;;;;;27.77;9.55;;;;;;;-10.03;76.85;100974.41;4865030;29;20511;-67
2021/12/12 01:39:19;;;;;;;10.50;5.90;;;;;;;-9.86;77.32;100977.53;4863963;29;20059;-68
2021/12/12 01:41:47;;;;;;;28.58;10.98;;;;;;;-9.79;77.48;100963.97;4863963;29;20048;-69
2021/12/12 01:44:22;;;;;;;15.52;5.45;;;;;;;-9.73;77.29;100962.47;4880656;29;20040;-68
2021/12/12 01:47:01;;;;;;;10.20;5.50;;;;;;;-9.57;76.61;100971.56;4874096;29;20056;-67
2021/12/12 01:49:28;;;;;;;17.08;6.88;;;;;;;-9.65;76.25;100967.88;4865636;29;20432;-68
2021/12/12 01:51:54;;;;;;;31.52;10.23;;;;;;;-9.77;76.92;100968.38;4864721;29;20040;-70
2021/12/12 01:54:25;;;;;;;23.42;10.60;;;;;;;-9.86;76.91;100978.41;4865172;29;20135;-69
2021/12/12 01:56:54;;;;;;;16.83;8.15;;;;;;;-9.79;76.86;100958.81;4848692;29;20040;-74
2021/12/12 01:59:22;;;;;;;33.95;10.75;;;;;;;-9.76;77.25;100958.94;4884279;29;20068;-78
2021/12/12 02:02:13;;;;;;;18.13;6.70;;;;;;;-9.71;77.34;100975.44;4877845;29;20046;-65
2021/12/12 02:04:43;;;;;;;34.67;11.85;;;;;;;-9.74;76.55;100970.19;4861010;29;20543;-63
2021/12/12 02:07:10;;;;;;;23.90;10.90;;;;;;;-9.78;77.63;100963.16;4861077;29;20053;-64
2021/12/12 02:09:36;;;;;;;24.25;10.25;;;;;;;-9.74;77.45;100955.56;4860950;29;20500;-64
2021/12/12 02:12:02;;;;;;;22.27;9.35;;;;;;;-9.68;77.76;100958.31;4844292;29;20481;-66
2021/12/12 02:14:31;;;;;;;26.85;9.68;;;;;;;-9.61;78.21;100955.13;4860616;29;20516;-65
2021/12/12 02:17:02;;;;;;;22.40;9.93;;;;;;;-9.48;78.05;100963.22;4844293;29;20499;-65
2021/12/12 02:19:40;;;;;;;25.70;10.02;;;;;;;-9.44;76.89;100958.19;4860115;29;20084;-66
2021/12/12 02:36:00;;;;;;;27.50;9.90;;;;;;;-9.40;76.25;100941.97;4786586;29;20062;-76
2021/12/12 02:38:29;;;;;;;17.75;6.65;;;;;;;-9.46;77.16;100946.94;4785880;29;20050;-65
2021/12/12 02:41:00;;;;;;;22.42;8.10;;;;;;;-9.33;77.24;100955.91;4785619;29;20053;-63
2021/12/12 02:43:30;;;;;;;18.40;8.35;;;;;;;-9.43;76.88;100949.63;4785654;29;20543;-65
2021/12/12 02:45:57;;;;;;;16.60;6.22;;;;;;;-9.45;77.40;100958.13;4785431;29;20050;-62
2021/12/12 02:48:32;;;;;;;24.25;9.05;;;;;;;-9.31;77.32;100960.31;4770371;29;20581;-63
2021/12/12 02:51:02;;;;;;;24.15;12.27;;;;;;;-9.43;77.04;100957.34;4785640;29;20450;-63
2021/12/12 02:53:31;;;;;;;27.38;8.85;;;;;;;-9.50;76.84;100952.88;4785205;29;20058;-63
2021/12/12 02:56:07;;;;;;;19.77;7.78;;;;;;;-9.45;77.38;100947.81;4769764;29;20058;-66
2021/12/12 02:58:33;;;;;;;22.50;8.65;;;;;;;-9.41;77.16;100937.63;4770189;29;20046;-67
2021/12/12 03:01:03;;;;;;;31.48;12.65;;;;;;;-9.25;77.08;100939.81;4788675;29;20082;-66
2021/12/12 03:03:30;;;;;;;19.00;7.80;;;;;;;-9.19;76.66;100919.34;4825465;29;20041;-65
2021/12/12 03:05:56;;;;;;;5.35;3.05;;;;;;;-9.06;77.61;100928.31;4842761;29;20040;-66
2021/12/12 03:08:21;;;;;;;6.88;4.07;;;;;;;-9.17;76.97;100933.19;4843730;29;20049;-66
2021/12/12 03:10:48;;;;;;;16.27;7.63;;;;;;;-9.12;76.52;100929.81;4827638;29;20053;-64
2021/12/12 03:13:14;;;;;;;23.15;9.13;;;;;;;-9.32;76.23;100937.03;4826820;29;20117;-63
2021/12/12 03:15:42;;;;;;;9.88;4.45;;;;;;;-9.25;76.70;100932.06;4843207;29;20049;-65
2021/12/12 03:18:13;;;;;;;24.80;9.40;;;;;;;-9.17;77.54;100932.31;4843814;29;20065;-65
2021/12/12 03:20:43;;;;;;;35.35;12.05;;;;;;;-9.19;77.65;100928.78;4844004;29;20393;-65
2021/12/12 03:23:19;;;;;;;28.63;9.18;;;;;;;-9.23;76.71;100926.94;4843524;29;20087;-65
2021/12/12 03:25:48;;;;;;;31.85;11.80;;;;;;;-9.34;77.11;100925.75;4842658;29;20089;-64
2021/12/12 03:28:16;;;;;;;16.73;6.50;;;;;;;-9.32;76.97;100932.72;4843302;29;20076;-66
2021/12/12 03:30:43;;;;;;;24.02;9.15;;;;;;;-9.27;77.66;100926.00;4844218;29;20053;-66
2021/12/12 03:33:09;;;;;;;17.65;7.10;;;;;;;-9.15;78.35;100932.34;4842288;29;20049;-66
2021/12/12 03:35:34;;;;;;;31.88;12.98;;;;;;;-8.99;77.45;100921.59;4825139;29;20049;-66
2021/12/12 03:37:59;;;;;;;26.38;9.88;;;;;;;-8.99;78.25;100916.44;4842385;29;20045;-65
2021/12/12 03:40:30;;;;;;;20.05;8.13;;;;;;;-8.91;77.81;100923.53;4845225;29;20055;-68
2021/12/12 03:42:57;;;;;;;10.85;6.15;;;;;;;-8.96;77.93;100922.56;4845307;29;20504;-67
2021/12/12 03:45:23;;;;;;;32.30;12.75;;;;;;;-9.08;77.44;100916.19;4845063;29;20041;-67
2021/12/12 03:47:58;;;;;;;15.13;6.85;;;;;;;-8.96;78.11;100926.84;4845200;29;20129;-67
2021/12/12 03:50:28;;;;;;;16.17;8.63;;;;;;;-8.93;77.01;100926.94;4845256;29;20053;-67
2021/12/12 03:52:55;;;;;;;15.00;7.85;;;;;;;-8.93;77.57;100934.69;4845177;29;20048;-67
2021/12/12 03:55:21;;;;;;;34.00;13.55;;;;;;;-8.97;77.08;100930.25;4844979;29;20048;-68
2021/12/12 03:57:48;;;;;;;25.08;8.70;;;;;;;-8.93;76.81;100934.69;4854524;29;20036;-66
2021/12/12 04:00:22;;;;;;;28.83;11.43;;;;;;;-9.07;77.57;100928.25;4863661;29;20059;-65
2021/12/12 04:02:47;;;;;;;20.80;8.10;;;;;;;-9.11;77.49;100927.28;4846958;29;20049;-65
2021/12/12 04:05:12;;;;;;;23.95;10.00;;;;;;;-9.14;77.63;100921.19;4846822;29;20143;-66
2021/12/12 04:07:37;;;;;;;25.67;8.63;;;;;;;-9.07;77.91;100923.09;4863852;29;20052;-66
2021/12/12 04:10:04;;;;;;;15.15;5.65;;;;;;;-9.13;78.13;100922.91;4855758;29;20048;-66
2021/12/12 04:12:29;;;;;;;15.95;5.78;;;;;;;-9.12;77.34;100930.72;4875653;29;20050;-64
2021/12/12 04:14:56;;;;;;;20.65;7.97;;;;;;;-9.16;77.48;100941.81;4867710;29;20053;-65
2021/12/12 04:17:25;;;;;;;22.73;6.75;;;;;;;-9.06;77.84;100940.34;4831302;29;20121;-64
2021/12/12 04:19:54;;;;;;;13.00;6.25;;;;;;;-8.97;77.37;100943.19;4864161;29;20064;-68
2021/12/12 04:22:19;;;;;;;29.80;10.65;;;;;;;-9.11;77.48;100941.91;4864148;29;20083;-65
2021/12/12 11:44:17;;;;;;;32.53;12.43;;;;;;;-5.72;79.02;100882.56;4931948;23;20060;-69
2021/12/12 11:46:53;;;;;;;41.20;16.08;;;;;;;-5.73;79.22;100880.81;4839915;29;20044;-68
2021/12/12 11:49:29;;;;;;;37.33;11.68;;;;;;;-5.66;79.55;100871.41;4864319;29;20053;-69
2021/12/12 11:52:09;;;;;;;47.35;17.30;;;;;;;-5.71;79.45;100884.31;4863872;29;20048;-68
2021/12/12 11:55:07;;;;;;;30.58;14.60;;;;;;;-5.70;79.79;100891.25;4863668;29;20057;-69
2021/12/12 11:57:44;;;;;;;42.72;14.10;;;;;;;-5.55;79.77;100886.28;4787250;29;20058;-68
2021/12/12 12:00:15;;;;;;;30.63;12.23;;;;;;;-5.55;80.30;100878.50;4786586;29;20573;-67
2021/12/12 12:03:33;;;;;;;32.97;15.02;;;;;;;-5.53;79.99;100881.94;4787400;29;20054;-67
2021/12/12 12:05:58;;;;;;;36.03;16.65;;;;;;;-5.53;79.96;100881.94;4751628;30;20124;-66
2021/12/12 12:08:41;;;;;;;48.83;16.88;;;;;;;-5.48;79.95;100884.63;4751252;30;20055;-67
2021/12/12 12:11:07;;;;;;;50.33;14.18;;;;;;;-5.38;79.83;100896.00;4751363;30;20051;-66
2021/12/12 12:13:54;;;;;;;41.30;13.98;;;;;;;-5.40;79.23;100890.78;4750854;30;20094;-69
2021/12/12 12:16:41;;;;;;;45.28;13.23;;;;;;;-5.32;79.85;100883.09;4736347;30;20398;-68
2021/12/12 12:19:50;;;;;;;41.30;14.52;;;;;;;-5.37;79.80;100872.63;4766343;29;20140;-66
2021/12/12 12:22:32;;;;;;;36.38;15.85;;;;;;;-5.43;80.35;100875.19;4720405;30;20480;-66
2021/12/12 12:25:16;;;;;;;32.42;13.02;;;;;;;-5.28;79.55;100880.53;4749052;30;20085;-66
2021/12/12 12:27:48;;;;;;;52.42;16.90;;;;;;;-5.24;79.91;100891.84;4766905;29;20626;-68
2021/12/12 12:30:31;;;;;;;28.50;10.70;;;;;;;-5.28;79.69;100877.94;4750338;30;20047;-68
2021/12/12 12:33:25;;;;;;;28.63;10.73;;;;;;;-5.21;80.34;100878.91;4738493;29;20051;-68
2021/12/12 12:36:24;;;;;;;29.98;14.75;;;;;;;-5.30;80.05;100879.66;4768286;29;20050;-69
2021/12/12 12:39:14;;;;;;;31.30;14.13;;;;;;;-5.30;80.24;100886.56;4766168;29;20064;-68
2021/12/12 12:42:01;;;;;;;31.67;13.50;;;;;;;-5.26;80.27;100884.03;4843940;29;20467;-67
2021/12/12 12:44:54;;;;;;;41.10;13.18;;;;;;;-5.12;80.39;100877.28;4823691;29;20136;-69
2021/12/12 12:47:41;;;;;;;27.25;11.45;;;;;;;-5.07;80.53;100879.03;4822976;29;20117;-68
2021/12/12 12:50:27;;;;;;;39.17;14.40;;;;;;;-5.18;80.29;100869.41;4824419;29;20420;-67
2021/12/12 12:53:17;;;;;;;28.48;11.90;;;;;;;-5.09;80.45;100859.97;4825661;29;20046;-67
2021/12/12 12:56:19;;;;;;;29.45;9.70;;;;;;;-5.08;80.47;100866.94;4824461;29;20053;-67
2021/12/12 12:59:29;;;;;;;26.25;8.63;;;;;;;-5.05;80.69;100859.13;4825438;29;20046;-68
2021/12/12 13:02:16;;;;;;;39.28;16.15;;;;;;;-5.11;81.02;100865.16;4803467;29;20140;-68
2021/12/12 13:04:59;;;;;;;30.48;11.80;;;;;;;-5.03;80.64;100873.03;4803626;29;20048;-68
2021/12/12 13:08:06;;;;;;;36.42;12.50;;;;;;;-4.89;80.72;100874.94;4804457;29;20079;-70
2021/12/12 13:10:34;;;;;;;33.20;13.43;;;;;;;-4.94;80.67;100887.00;4803284;29;20073;-70
2021/12/12 13:13:19;;;;;;;31.65;13.93;;;;;;;-4.93;80.89;100890.47;4804524;29;20052;-69
2021/12/12 13:15:56;;;;;;;29.65;11.73;;;;;;;-4.96;81.11;100896.50;4803659;29;20050;-71
2021/12/12 13:18:52;;;;;;;32.70;13.18;;;;;;;-4.94;81.18;100894.81;4802934;29;20062;-69
2021/12/12 13:21:32;;;;;;;19.02;9.52;;;;;;;-4.84;81.02;100893.16;4803952;29;20061;-68
2021/12/12 13:24:22;;;;;;;28.30;12.50;;;;;;;-4.86;81.30;100895.78;4793177;29;20061;-77
2021/12/12 13:27:49;;;;;;;26.17;9.27;;;;;;;-4.84;81.29;100895.78;4809936;29;20125;-70
2021/12/12 13:30:13;;;;;;;31.33;12.52;;;;;;;-4.72;81.74;100887.22;4808058;29;20631;-69
2021/12/12 13:32:56;;;;;;;;;;;;;;;-4.71;81.03;100896.78;5158272;27;20123;-69
2021/12/12 13:35:42;;;;;;;20.42;9.57;;;;;;;-4.71;81.34;100889.84;5121546;27;20271;-68
2021/12/12 13:38:20;;;;;;;33.53;13.60;;;;;;;-4.76;81.21;100895.03;5119593;27;20100;-70
2021/12/12 13:41:18;;;;;;;25.17;10.45;;;;;;;-4.72;81.37;100890.69;5154600;27;20052;-67
2021/12/12 13:43:59;;;;;;;30.42;10.57;;;;;;;-4.73;81.25;100881.16;5148291;27;20388;-69
2021/12/12 13:47:05;;;;;;;24.50;9.57;;;;;;;-4.53;81.51;100871.81;5125312;27;20038;-71
2021/12/12 13:49:39;;;;;;;22.27;10.50;;;;;;;-4.67;81.35;100875.16;5058070;28;20040;-73
2021/12/12 13:52:10;;;;;;;25.27;10.90;;;;;;;-4.69;81.33;100875.13;5040747;28;20671;-72
2021/12/12 13:54:54;;;;;;;25.52;11.93;;;;;;;-4.69;81.55;100882.06;5039721;28;20074;-69
2021/12/12 13:57:56;;;;;;;32.88;13.20;;;;;;;-4.57;81.81;100890.84;5056876;28;20048;-72
2021/12/12 14:00:31;;;;;;;23.02;11.63;;;;;;;-4.58;81.65;100875.22;5051755;28;20043;-72
2021/12/12 14:03:05;;;;;;;25.27;10.82;;;;;;;-4.54;81.75;100877.88;5039909;28;20115;-71
2021/12/12 14:05:42;;;;;;;31.45;12.00;;;;;;;-4.57;81.54;100876.97;5040583;28;20044;-74
2021/12/12 14:08:30;;;;;;;33.85;14.07;;;;;;;-4.63;81.72;100875.22;5048252;28;20080;-72
2021/12/12 14:10:59;;;;;;;24.67;10.63;;;;;;;-4.60;82.01;100876.94;5021485;28;20051;-73
2021/12/12 14:13:47;;;;;;;23.08;8.70;;;;;;;-4.49;81.83;100867.50;5068773;28;20130;-72
2021/12/12 14:16:22;;;;;;;29.42;13.45;;;;;;;-4.56;81.83;100874.38;5051875;28;20130;-70
2021/12/12 14:19:00;;;;;;;20.92;9.52;;;;;;;-4.52;81.87;100868.38;5048334;28;20550;-72
2021/12/12 14:21:25;;;;;;;28.27;12.18;;;;;;;-4.56;81.98;100877.00;5056580;28;20040;-71
2021/12/12 14:23:50;;;;;;;21.25;9.63;;;;;;;-4.53;81.86;100874.44;5044049;27;20126;-72
2021/12/12 14:26:15;;;;;;;29.15;13.93;;;;;;;-4.54;82.23;100867.47;5140593;27;20042;-71
2021/12/12 14:28:43;;;;;;;30.83;11.93;;;;;;;-4.49;82.42;100872.69;5121649;27;20099;-71
2021/12/12 14:31:11;;;;;;;24.13;11.20;;;;;;;-4.49;82.64;100875.31;5140507;27;20089;-71
2021/12/12 14:33:43;;;;;;;34.20;12.63;;;;;;;-4.44;82.42;100871.91;5125051;27;20046;-69
2021/12/12 14:36:31;;;;;;;28.83;11.32;;;;;;;-4.42;82.22;100871.91;5115988;27;20528;-70
2021/12/12 14:39:00;;;;;;;28.17;13.13;;;;;;;-4.42;82.07;100864.13;5113727;27;20042;-65
2021/12/12 14:41:38;;;;;;;12.82;6.22;;;;;;;-4.24;82.11;100864.25;5132181;27;20035;-67
2021/12/12 14:44:18;;;;;;;32.90;14.95;;;;;;;-4.23;82.56;100873.81;5099707;27;20048;-66
2021/12/12 14:46:49;;;;;;;35.58;12.25;;;;;;;-4.25;82.32;100875.53;5117263;27;20069;-66
2021/12/12 14:49:17;;;;;;;28.83;11.93;;;;;;;-4.22;82.36;100869.47;5099529;27;20083;-67
2021/12/12 14:51:55;;;;;;;26.92;11.85;;;;;;;-4.24;82.35;100861.66;5082444;27;20046;-67
2021/12/12 14:54:23;;;;;;;23.00;10.40;;;;;;;-4.14;82.22;100866.06;5087436;27;20125;-67
2021/12/12 14:57:00;;;;;;;26.15;11.75;;;;;;;-4.15;82.05;100860.84;5118730;27;20030;-68
2021/12/12 14:59:29;;;;;;;29.20;12.38;;;;;;;-4.18;82.06;100853.03;5099856;27;20046;-69
2021/12/12 15:02:03;;;;;;;37.53;15.73;;;;;;;-4.11;81.94;100849.59;5118684;27;20604;-69
2021/12/12 15:04:40;;;;;;;23.52;9.75;;;;;;;-4.07;82.26;100841.81;5117957;27;20047;-68
2021/12/12 15:07:17;;;;;;;40.05;13.77;;;;;;;-4.02;82.08;100841.84;5082306;27;20038;-68
2021/12/12 15:09:48;;;;;;;33.15;12.68;;;;;;;-4.04;81.68;100833.13;5117847;27;20500;-70
2021/12/12 15:12:31;;;;;;;22.92;7.88;;;;;;;-4.07;81.95;100821.00;5099678;27;20070;-70
2021/12/12 15:15:07;;;;;;;19.23;7.40;;;;;;;-4.12;81.51;100827.88;5098923;27;20042;-68
2021/12/12 15:17:34;;;;;;;27.23;11.68;;;;;;;-4.24;82.05;100835.59;5118364;27;20038;-70
2021/12/12 15:20:05;;;;;;;28.85;12.50;;;;;;;-4.05;82.53;100834.88;5117771;27;20424;-69
2021/12/12 15:22:46;;;;;;;30.23;12.45;;;;;;;-4.00;82.13;100824.50;5099015;27;20400;-69
2021/12/12 15:25:16;;;;;;;12.10;5.72;;;;;;;-3.90;82.36;100822.81;5117484;27;20042;-69
2021/12/12 15:27:43;;;;;;;24.88;10.80;;;;;;;-3.88;82.37;100823.69;5099136;27;20042;-72
2021/12/12 15:30:17;;;;;;;27.45;9.10;;;;;;;-3.88;81.91;100826.31;5117512;27;20046;-69
2021/12/12 15:32:48;;;;;;;32.35;13.88;;;;;;;-3.92;82.06;100830.59;5116198;27;20442;-67
2021/12/12 15:35:16;;;;;;;20.77;9.77;;;;;;;-3.83;82.80;100814.16;5118095;27;20039;-68
2021/12/12 15:37:43;;;;;;;32.33;13.32;;;;;;;-3.89;82.51;100819.34;5116407;27;20044;-68
2021/12/12 15:40:20;;;;;;;23.85;10.85;;;;;;;-3.88;83.09;100821.09;5099462;27;20038;-69
2021/12/12 15:42:51;;;;;;;18.50;8.35;;;;;;;-3.79;82.74;100808.09;5118182;27;20453;-69
2021/12/12 15:45:26;;;;;;;18.88;7.40;;;;;;;-3.70;83.43;100808.16;5099710;27;20476;-67
2021/12/12 15:47:53;;;;;;;18.13;8.23;;;;;;;-3.71;83.23;100801.19;5100009;27;20046;-68
2021/12/12 15:50:28;;;;;;;24.23;8.73;;;;;;;-3.62;82.77;100803.88;5118021;27;20128;-67
2021/12/12 15:53:03;;;;;;;30.60;12.50;;;;;;;-3.68;82.77;100796.88;5104442;27;20062;-68
2021/12/12 15:55:45;;;;;;;28.17;10.80;;;;;;;-3.68;83.18;100804.69;5076486;27;20038;-71
2021/12/12 15:58:16;;;;;;;25.60;11.05;;;;;;;-3.59;83.03;100805.59;5128906;27;20042;-69
2021/12/12 16:00:49;;;;;;;26.35;10.30;;;;;;;-3.64;82.81;100800.38;5118283;27;20039;-69
2021/12/12 16:03:22;;;;;;;23.58;10.57;;;;;;;-3.64;83.31;100795.16;5117829;27;20038;-68
2021/12/12 16:05:55;;;;;;;32.05;12.50;;;;;;;-3.59;83.29;100806.47;5117772;27;20042;-68
2021/12/12 16:08:23;;;;;;;27.40;11.93;;;;;;;-3.53;83.56;100798.69;5117647;27;20482;-68
2021/12/12 16:10:56;;;;;;;29.33;10.40;;;;;;;-3.48;83.07;100815.19;5117343;27;20039;-68
2021/12/12 16:13:36;;;;;;;18.42;8.23;;;;;;;-3.47;83.82;100814.34;5117016;27;20046;-68
2021/12/12 16:16:06;;;;;;;22.77;9.60;;;;;;;-3.46;83.60;100805.66;5117371;27;20496;-68
2021/12/12 16:18:39;;;;;;;24.48;10.88;;;;;;;-3.48;83.60;100812.59;5126051;27;20045;-68
2021/12/12 16:21:09;;;;;;;22.70;9.63;;;;;;;-3.48;83.82;100804.75;5074584;27;20033;-69
2021/12/12 16:23:34;;;;;;;18.63;8.27;;;;;;;-3.41;83.44;100797.84;5126254;27;20039;-67
2021/12/12 16:26:04;;;;;;;22.48;11.98;;;;;;;-3.32;84.06;100798.75;5091903;27;20130;-68
2021/12/12 16:28:41;;;;;;;22.58;9.50;;;;;;;-3.20;83.03;100792.72;5108545;27;20037;-68
2021/12/12 16:31:10;;;;;;;24.88;10.30;;;;;;;-3.31;83.71;100795.28;5105712;27;20049;-68
2021/12/12 16:33:50;;;;;;;19.38;9.10;;;;;;;-3.19;83.24;100791.84;5125702;27;20093;-68
2021/12/12 16:36:21;;;;;;;23.08;10.50;;;;;;;-3.25;82.84;100778.78;5108543;27;20129;-68
2021/12/12 16:38:47;;;;;;;29.25;12.38;;;;;;;-3.29;83.20;100779.66;5074382;27;20046;-69
2021/12/12 16:41:13;;;;;;;22.02;6.85;;;;;;;-3.17;82.96;100786.63;5126110;27;20480;-67
2021/12/12 16:44:00;;;;;;;28.17;11.38;;;;;;;-3.19;83.42;100777.94;5107752;27;20046;-68
2021/12/12 16:46:33;;;;;;;29.35;11.13;;;;;;;-3.12;83.64;100780.53;5127355;27;20047;-68
2021/12/12 16:49:01;;;;;;;19.02;9.75;;;;;;;-3.27;82.94;100779.66;5124893;27;20038;-68
2021/12/12 16:51:34;;;;;;;17.85;10.93;;;;;;;-3.35;83.26;100790.91;5092999;27;20130;-70
2021/12/12 16:54:13;;;;;;;19.42;10.00;;;;;;;-3.35;83.79;100796.13;5111692;27;20046;-69
2021/12/12 16:56:53;;;;;;;26.10;11.43;;;;;;;-3.20;84.24;100786.63;5141966;27;20551;-69
2021/12/12 16:59:24;;;;;;;22.50;10.57;;;;;;;-3.23;84.18;100797.03;5118178;27;20078;-68
2021/12/12 17:01:50;;;;;;;22.05;10.82;;;;;;;-3.27;83.42;100779.66;5137096;27;20040;-69
2021/12/12 17:04:20;;;;;;;22.55;10.90;;;;;;;-3.22;84.22;100777.91;5137187;27;20049;-69
2021/12/12 17:06:53;;;;;;;26.23;11.65;;;;;;;-3.17;83.92;100777.06;5136598;27;20079;-69
2021/12/12 17:09:30;;;;;;;19.50;9.73;;;;;;;-3.20;83.75;100773.56;5118122;27;20037;-69
2021/12/12 17:12:01;;;;;;;24.25;10.70;;;;;;;-3.15;83.97;100779.66;5084138;27;20049;-68
2021/12/12 17:14:33;;;;;;;25.40;11.70;;;;;;;-3.13;84.06;100786.63;5100603;27;20042;-68
2021/12/12 17:16:59;;;;;;;24.45;10.88;;;;;;;-3.06;84.05;100787.53;5118237;27;20404;-68
2021/12/12 17:19:31;;;;;;;21.42;10.35;;;;;;;-3.12;84.72;100784.88;5136340;27;20042;-67
2021/12/12 17:21:57;;;;;;;20.90;10.05;;;;;;;-3.11;83.54;100776.19;5136605;27;20046;-68
2021/12/12 17:24:23;;;;;;;19.58;9.95;;;;;;;-3.11;83.75;100776.19;5118049;27;20048;-68
2021/12/12 17:26:51;;;;;;;21.05;9.75;;;;;;;-3.01;83.81;100767.50;5136784;27;20038;-68
2021/12/12 17:29:28;;;;;;;24.42;11.23;;;;;;;-3.07;83.73;100767.53;5118144;27;20121;-69
2021/12/12 17:32:01;;;;;;;21.75;9.57;;;;;;;-2.97;83.76;100772.75;5117931;27;20054;-67
2021/12/12 17:34:33;;;;;;;28.02;11.93;;;;;;;-2.90;84.23;100768.41;5117877;27;20049;-68
2021/12/12 17:37:15;;;;;;;11.70;5.85;;;;;;;-2.84;84.07;100764.94;5136589;27;20066;-68
2021/12/12 17:39:46;;;;;;;24.90;10.05;;;;;;;-2.95;83.25;100767.53;5136651;27;20050;-66
2021/12/12 17:42:34;;;;;;;23.13;11.75;;;;;;;-3.08;83.04;100752.75;5137686;27;20042;-67
2021/12/12 17:45:37;;;;;;;18.45;9.20;;;;;;;-2.92;84.06;100759.69;5125853;27;20121;-67
2021/12/12 17:48:40;;;;;;;31.13;12.05;;;;;;;-2.89;84.18;100767.53;5107523;27;20090;-68
2021/12/12 17:51:26;;;;;;;17.73;8.88;;;;;;;-2.96;83.18;100773.63;5125177;27;20117;-67
2021/12/12 17:54:04;;;;;;;24.70;7.50;;;;;;;-2.96;84.03;100773.63;5107654;27;20034;-67
2021/12/12 17:56:39;;;;;;;20.13;8.75;;;;;;;-2.91;83.39;100764.06;5105196;27;20042;-67
2021/12/12 17:59:34;;;;;;;19.70;10.48;;;;;;;-2.96;83.44;100765.78;5125978;27;20030;-67
2021/12/12 18:02:03;;;;;;;18.60;9.90;;;;;;;-3.07;84.35;100751.88;5088564;27;20049;-67
2021/12/12 18:04:31;;;;;;;18.02;9.77;;;;;;;-2.96;84.12;100760.59;5124205;27;20034;-67
2021/12/12 18:06:59;;;;;;;19.23;8.88;;;;;;;-2.91;84.09;100764.06;5105749;27;20039;-67
2021/12/12 18:09:54;;;;;;;17.55;10.40;;;;;;;-2.98;83.93;100763.19;5105954;27;20419;-66
2021/12/12 18:12:20;;;;;;;19.40;8.67;;;;;;;-2.96;84.25;100760.59;4969348;28;20364;-66
2021/12/12 18:14:47;;;;;;;21.58;11.00;;;;;;;-2.98;84.25;100765.78;5009681;28;20068;-67
2021/12/12 18:17:27;;;;;;;20.80;10.45;;;;;;;-3.03;84.77;100758.81;4978131;28;20053;-68
2021/12/12 18:20:22;;;;;;;21.30;8.65;;;;;;;-3.00;84.53;100762.31;4979433;28;20045;-68
2021/12/12 18:23:13;;;;;;;19.48;9.05;;;;;;;-2.92;84.37;100763.19;4980304;28;20075;-67
2021/12/12 18:25:56;;;;;;;17.83;8.77;;;;;;;-2.96;84.00;100745.81;4972429;28;20524;-67
2021/12/12 18:28:31;;;;;;;12.68;7.40;;;;;;;-2.93;84.42;100745.78;4979981;28;20565;-68
2021/12/12 18:31:22;;;;;;;22.25;8.38;;;;;;;-2.80;84.37;100744.03;4996119;28;20069;-66
2021/12/12 18:33:59;;;;;;;18.25;9.48;;;;;;;-2.92;84.52;100746.66;4991603;28;20109;-69
2021/12/12 18:36:32;;;;;;;18.05;8.98;;;;;;;-2.95;84.62;100757.97;4995750;28;20064;-72
2021/12/12 18:39:02;;;;;;;19.80;9.93;;;;;;;-2.88;83.99;100753.63;4979570;28;20389;-70
2021/12/12 18:41:37;;;;;;;13.43;6.13;;;;;;;-2.82;84.00;100763.22;4979478;28;20042;-71
2021/12/12 18:44:05;;;;;;;19.60;9.20;;;;;;;-2.70;84.11;100743.16;4980294;28;20132;-73
2021/12/12 18:46:35;;;;;;;16.08;7.88;;;;;;;-2.75;83.40;100751.88;4997069;28;20041;-70
2021/12/12 18:49:10;;;;;;;16.05;8.73;;;;;;;-2.88;83.45;100742.31;5020904;27;20055;-70
2021/12/12 18:51:43;;;;;;;23.10;9.13;;;;;;;-2.87;83.25;100734.50;5119457;27;20078;-65
2021/12/12 18:54:13;;;;;;;19.02;9.00;;;;;;;-2.97;83.65;100737.97;5101504;27;20522;-67
2021/12/12 18:56:41;;;;;;;18.98;10.13;;;;;;;-3.06;83.69;100730.16;5101264;27;20046;-69
2021/12/12 18:59:13;;;;;;;17.08;9.25;;;;;;;-3.05;83.71;100745.75;5120535;27;20110;-66
2021/12/12 19:02:17;;;;;;;24.88;10.00;;;;;;;-3.07;84.30;100738.84;5120098;27;20038;-67
2021/12/12 19:04:53;;;;;;;17.17;8.73;;;;;;;-2.95;84.35;100736.25;5118031;27;20043;-68
2021/12/12 19:07:18;;;;;;;20.75;8.75;;;;;;;-2.96;84.81;100719.72;5144983;27;20042;-67
2021/12/12 19:09:51;;;;;;;21.08;10.45;;;;;;;-2.96;84.33;100724.06;5123480;27;20039;-66
2021/12/12 19:12:29;;;;;;;15.75;8.73;;;;;;;-2.98;84.61;100729.28;5111462;27;20069;-69
2021/12/12 19:14:55;;;;;;;13.82;7.43;;;;;;;-2.89;84.11;100725.78;5110791;27;20033;-68
2021/12/12 19:17:20;;;;;;;22.33;9.48;;;;;;;-2.89;83.66;100709.25;5127762;27;20121;-68
2021/12/12 19:19:53;;;;;;;18.92;10.05;;;;;;;-2.93;83.87;100709.25;5108742;27;20030;-67
2021/12/12 19:22:29;;;;;;;17.65;7.68;;;;;;;-2.92;83.85;100708.38;5091398;27;20031;-66